sensor_id;sensor_type;location;lat;lon;timestamp;temperature;humidity
16643;DHT22;8435;52.184;5.406;2022-07-06T00:00:19;17.10;90.00
16643;DHT22;8435;52.184;5.406;2022-07-06T00:02:46;16.90;90.30
16643;DHT22;8435;52.184;5.406;2022-07-06T00:05:13;17.00;90.10
16643;DHT22;8435;52.184;5.406;2022-07-06T00:07:40;16.90;90.10
16643;DHT22;8435;52.184;5.406;2022-07-06T00:10:08;17.00;90.20
16643;DHT22;8435;52.184;5.406;2022-07-06T00:12:35;16.90;90.40
16643;DHT22;8435;52.184;5.406;2022-07-06T00:15:01;16.90;90.30
16643;DHT22;8435;52.184;5.406;2022-07-06T00:17:28;16.90;90.40
16643;DHT22;8435;52.184;5.406;2022-07-06T00:19:55;16.90;90.50
16643;DHT22;8435;52.184;5.406;2022-07-06T00:22:22;16.80;90.50
16643;DHT22;8435;52.184;5.406;2022-07-06T00:24:49;16.80;90.60
16643;DHT22;8435;52.184;5.406;2022-07-06T00:27:17;16.80;90.70
16643;DHT22;8435;52.184;5.406;2022-07-06T00:29:43;16.80;90.80
16643;DHT22;8435;52.184;5.406;2022-07-06T00:32:10;16.80;90.70
16643;DHT22;8435;52.184;5.406;2022-07-06T00:34:38;16.70;90.80
16643;DHT22;8435;52.184;5.406;2022-07-06T00:37:06;16.70;90.80
16643;DHT22;8435;52.184;5.406;2022-07-06T00:39:32;16.70;90.80
16643;DHT22;8435;52.184;5.406;2022-07-06T00:41:59;16.70;90.90
16643;DHT22;8435;52.184;5.406;2022-07-06T00:44:27;16.70;90.90
16643;DHT22;8435;52.184;5.406;2022-07-06T00:46:55;16.70;91.00
16643;DHT22;8435;52.184;5.406;2022-07-06T00:49:22;16.60;91.00
16643;DHT22;8435;52.184;5.406;2022-07-06T00:52:06;16.60;91.10
16643;DHT22;8435;52.184;5.406;2022-07-06T00:54:34;16.60;91.10
16643;DHT22;8435;52.184;5.406;2022-07-06T00:57:03;16.50;91.20
16643;DHT22;8435;52.184;5.406;2022-07-06T00:59:31;16.50;91.30
16643;DHT22;8435;52.184;5.406;2022-07-06T01:01:58;16.50;91.40
16643;DHT22;8435;52.184;5.406;2022-07-06T01:04:25;16.50;91.40
16643;DHT22;8435;52.184;5.406;2022-07-06T01:06:51;16.40;91.50
16643;DHT22;8435;52.184;5.406;2022-07-06T01:09:18;16.40;91.60
16643;DHT22;8435;52.184;5.406;2022-07-06T01:11:45;16.40;91.70
16643;DHT22;8435;52.184;5.406;2022-07-06T01:14:14;16.30;91.70
16643;DHT22;8435;52.184;5.406;2022-07-06T01:16:42;16.30;91.80
16643;DHT22;8435;52.184;5.406;2022-07-06T01:19:09;16.40;91.90
16643;DHT22;8435;52.184;5.406;2022-07-06T01:21:38;16.30;91.90
16643;DHT22;8435;52.184;5.406;2022-07-06T01:24:05;16.30;92.10
16643;DHT22;8435;52.184;5.406;2022-07-06T01:26:32;16.30;92.10
16643;DHT22;8435;52.184;5.406;2022-07-06T01:28:59;16.30;92.10
16643;DHT22;8435;52.184;5.406;2022-07-06T01:31:26;16.20;92.10
16643;DHT22;8435;52.184;5.406;2022-07-06T01:33:55;16.20;92.20
16643;DHT22;8435;52.184;5.406;2022-07-06T01:36:22;16.20;92.30
16643;DHT22;8435;52.184;5.406;2022-07-06T01:38:52;16.20;92.30
16643;DHT22;8435;52.184;5.406;2022-07-06T01:41:19;16.20;92.40
16643;DHT22;8435;52.184;5.406;2022-07-06T01:43:46;16.20;92.40
16643;DHT22;8435;52.184;5.406;2022-07-06T01:46:13;16.20;92.40
16643;DHT22;8435;52.184;5.406;2022-07-06T01:48:40;16.20;92.40
16643;DHT22;8435;52.184;5.406;2022-07-06T01:51:07;16.20;92.40
16643;DHT22;8435;52.184;5.406;2022-07-06T01:53:34;16.20;92.40
16643;DHT22;8435;52.184;5.406;2022-07-06T01:56:02;16.20;92.40
16643;DHT22;8435;52.184;5.406;2022-07-06T01:58:29;16.20;92.50
16643;DHT22;8435;52.184;5.406;2022-07-06T02:00:56;16.20;92.50
16643;DHT22;8435;52.184;5.406;2022-07-06T02:03:22;16.20;92.50
16643;DHT22;8435;52.184;5.406;2022-07-06T02:05:49;16.20;92.60
16643;DHT22;8435;52.184;5.406;2022-07-06T02:08:16;16.20;92.60
16643;DHT22;8435;52.184;5.406;2022-07-06T02:10:43;16.10;92.90
16643;DHT22;8435;52.184;5.406;2022-07-06T02:13:11;16.10;92.60
16643;DHT22;8435;52.184;5.406;2022-07-06T02:15:37;16.10;92.70
16643;DHT22;8435;52.184;5.406;2022-07-06T02:18:04;16.10;92.70
16643;DHT22;8435;52.184;5.406;2022-07-06T02:20:31;16.10;92.70
16643;DHT22;8435;52.184;5.406;2022-07-06T02:22:58;16.10;92.80
16643;DHT22;8435;52.184;5.406;2022-07-06T02:25:24;16.10;92.90
16643;DHT22;8435;52.184;5.406;2022-07-06T02:27:51;16.00;92.90
16643;DHT22;8435;52.184;5.406;2022-07-06T02:30:19;16.00;93.00
16643;DHT22;8435;52.184;5.406;2022-07-06T02:32:46;16.00;93.10
16643;DHT22;8435;52.184;5.406;2022-07-06T02:35:13;16.00;93.10
16643;DHT22;8435;52.184;5.406;2022-07-06T02:37:40;16.10;93.10
16643;DHT22;8435;52.184;5.406;2022-07-06T02:40:07;16.10;93.10
16643;DHT22;8435;52.184;5.406;2022-07-06T02:42:34;16.10;93.20
16643;DHT22;8435;52.184;5.406;2022-07-06T02:45:02;16.10;93.10
16643;DHT22;8435;52.184;5.406;2022-07-06T02:47:30;16.10;93.20
16643;DHT22;8435;52.184;5.406;2022-07-06T02:49:57;16.10;93.20
16643;DHT22;8435;52.184;5.406;2022-07-06T02:52:23;16.10;93.20
16643;DHT22;8435;52.184;5.406;2022-07-06T02:54:50;16.00;93.20
16643;DHT22;8435;52.184;5.406;2022-07-06T02:57:17;16.10;93.20
16643;DHT22;8435;52.184;5.406;2022-07-06T02:59:44;16.00;93.20
16643;DHT22;8435;52.184;5.406;2022-07-06T03:02:11;16.00;93.30
16643;DHT22;8435;52.184;5.406;2022-07-06T03:04:39;16.00;93.30
16643;DHT22;8435;52.184;5.406;2022-07-06T03:07:06;16.00;93.40
16643;DHT22;8435;52.184;5.406;2022-07-06T03:09:33;16.00;93.40
16643;DHT22;8435;52.184;5.406;2022-07-06T03:11:59;16.00;93.40
16643;DHT22;8435;52.184;5.406;2022-07-06T03:14:26;16.00;93.50
16643;DHT22;8435;52.184;5.406;2022-07-06T03:16:53;16.00;93.50
16643;DHT22;8435;52.184;5.406;2022-07-06T03:19:20;16.00;93.50
16643;DHT22;8435;52.184;5.406;2022-07-06T03:21:48;16.00;93.60
16643;DHT22;8435;52.184;5.406;2022-07-06T03:24:15;16.00;93.70
16643;DHT22;8435;52.184;5.406;2022-07-06T03:26:41;16.00;93.70
16643;DHT22;8435;52.184;5.406;2022-07-06T03:29:08;16.00;93.80
16643;DHT22;8435;52.184;5.406;2022-07-06T03:31:34;16.00;93.80
16643;DHT22;8435;52.184;5.406;2022-07-06T03:34:01;16.00;93.80
16643;DHT22;8435;52.184;5.406;2022-07-06T03:36:28;16.00;93.90
16643;DHT22;8435;52.184;5.406;2022-07-06T03:38:56;16.10;93.90
16643;DHT22;8435;52.184;5.406;2022-07-06T03:41:23;16.10;94.00
16643;DHT22;8435;52.184;5.406;2022-07-06T03:43:49;16.10;94.00
16643;DHT22;8435;52.184;5.406;2022-07-06T03:46:16;16.10;94.00
16643;DHT22;8435;52.184;5.406;2022-07-06T03:48:43;16.10;94.00
16643;DHT22;8435;52.184;5.406;2022-07-06T03:51:09;16.20;94.00
16643;DHT22;8435;52.184;5.406;2022-07-06T03:53:37;16.20;94.00
16643;DHT22;8435;52.184;5.406;2022-07-06T03:56:05;16.20;94.00
16643;DHT22;8435;52.184;5.406;2022-07-06T03:58:49;16.20;94.10
16643;DHT22;8435;52.184;5.406;2022-07-06T04:01:16;16.30;94.00
16643;DHT22;8435;52.184;5.406;2022-07-06T04:03:42;16.30;94.10
16643;DHT22;8435;52.184;5.406;2022-07-06T04:06:10;16.30;94.00
16643;DHT22;8435;52.184;5.406;2022-07-06T04:08:36;16.30;94.00
16643;DHT22;8435;52.184;5.406;2022-07-06T04:11:05;16.30;94.00
16643;DHT22;8435;52.184;5.406;2022-07-06T04:13:31;16.40;94.10
16643;DHT22;8435;52.184;5.406;2022-07-06T04:15:58;16.30;94.00
16643;DHT22;8435;52.184;5.406;2022-07-06T04:18:25;16.40;94.10
16643;DHT22;8435;52.184;5.406;2022-07-06T04:20:52;16.40;94.10
16643;DHT22;8435;52.184;5.406;2022-07-06T04:23:19;16.50;94.10
16643;DHT22;8435;52.184;5.406;2022-07-06T04:25:45;16.50;94.10
16643;DHT22;8435;52.184;5.406;2022-07-06T04:28:13;16.60;94.10
16643;DHT22;8435;52.184;5.406;2022-07-06T04:30:40;16.60;94.20
16643;DHT22;8435;52.184;5.406;2022-07-06T04:33:07;16.60;94.10
16643;DHT22;8435;52.184;5.406;2022-07-06T04:35:34;16.60;94.20
16643;DHT22;8435;52.184;5.406;2022-07-06T04:38:01;16.60;94.10
16643;DHT22;8435;52.184;5.406;2022-07-06T04:40:27;16.70;94.10
16643;DHT22;8435;52.184;5.406;2022-07-06T04:42:54;16.70;94.10
16643;DHT22;8435;52.184;5.406;2022-07-06T04:45:22;16.70;94.10
16643;DHT22;8435;52.184;5.406;2022-07-06T04:47:49;16.80;94.20
16643;DHT22;8435;52.184;5.406;2022-07-06T04:50:15;16.80;94.10
16643;DHT22;8435;52.184;5.406;2022-07-06T04:52:42;16.90;94.10
16643;DHT22;8435;52.184;5.406;2022-07-06T04:55:09;16.90;94.10
16643;DHT22;8435;52.184;5.406;2022-07-06T04:57:36;16.90;94.40
16643;DHT22;8435;52.184;5.406;2022-07-06T05:00:04;16.90;94.10
16643;DHT22;8435;52.184;5.406;2022-07-06T05:02:32;17.00;94.10
16643;DHT22;8435;52.184;5.406;2022-07-06T05:04:59;17.10;94.10
16643;DHT22;8435;52.184;5.406;2022-07-06T05:07:26;17.10;94.00
16643;DHT22;8435;52.184;5.406;2022-07-06T05:09:54;17.10;94.00
16643;DHT22;8435;52.184;5.406;2022-07-06T05:12:21;17.20;94.10
16643;DHT22;8435;52.184;5.406;2022-07-06T05:14:47;17.30;94.10
16643;DHT22;8435;52.184;5.406;2022-07-06T05:17:15;17.30;94.10
16643;DHT22;8435;52.184;5.406;2022-07-06T05:19:43;17.40;94.00
16643;DHT22;8435;52.184;5.406;2022-07-06T05:22:09;17.40;94.00
16643;DHT22;8435;52.184;5.406;2022-07-06T05:24:36;17.50;93.90
16643;DHT22;8435;52.184;5.406;2022-07-06T05:27:03;17.60;93.80
16643;DHT22;8435;52.184;5.406;2022-07-06T05:29:30;17.60;93.70
16643;DHT22;8435;52.184;5.406;2022-07-06T05:31:57;17.70;93.70
16643;DHT22;8435;52.184;5.406;2022-07-06T05:34:23;17.70;93.80
16643;DHT22;8435;52.184;5.406;2022-07-06T05:36:52;17.80;93.70
16643;DHT22;8435;52.184;5.406;2022-07-06T05:39:18;17.80;93.80
16643;DHT22;8435;52.184;5.406;2022-07-06T05:41:48;17.90;93.90
16643;DHT22;8435;52.184;5.406;2022-07-06T05:44:15;18.00;94.20
16643;DHT22;8435;52.184;5.406;2022-07-06T05:46:42;18.10;93.70
16643;DHT22;8435;52.184;5.406;2022-07-06T05:49:08;18.30;93.70
16643;DHT22;8435;52.184;5.406;2022-07-06T05:51:55;18.40;93.60
16643;DHT22;8435;52.184;5.406;2022-07-06T05:54:21;18.50;93.50
16643;DHT22;8435;52.184;5.406;2022-07-06T05:56:48;18.60;93.50
16643;DHT22;8435;52.184;5.406;2022-07-06T05:59:15;18.70;93.50
16643;DHT22;8435;52.184;5.406;2022-07-06T06:01:42;18.90;93.40
16643;DHT22;8435;52.184;5.406;2022-07-06T06:04:08;19.00;93.20
16643;DHT22;8435;52.184;5.406;2022-07-06T06:06:35;19.10;93.10
16643;DHT22;8435;52.184;5.406;2022-07-06T06:09:03;19.20;92.90
16643;DHT22;8435;52.184;5.406;2022-07-06T06:11:30;19.40;93.00
16643;DHT22;8435;52.184;5.406;2022-07-06T06:13:56;19.50;93.10
16643;DHT22;8435;52.184;5.406;2022-07-06T06:16:23;19.70;92.80
16643;DHT22;8435;52.184;5.406;2022-07-06T06:18:50;19.90;92.50
16643;DHT22;8435;52.184;5.406;2022-07-06T06:21:17;20.00;92.00
16643;DHT22;8435;52.184;5.406;2022-07-06T06:23:43;20.20;91.90
16643;DHT22;8435;52.184;5.406;2022-07-06T06:26:11;20.30;91.80
16643;DHT22;8435;52.184;5.406;2022-07-06T06:28:38;20.30;91.50
16643;DHT22;8435;52.184;5.406;2022-07-06T06:31:07;20.40;91.60
16643;DHT22;8435;52.184;5.406;2022-07-06T06:33:33;20.40;91.40
16643;DHT22;8435;52.184;5.406;2022-07-06T06:36:00;20.60;91.20
16643;DHT22;8435;52.184;5.406;2022-07-06T06:38:27;20.70;91.00
16643;DHT22;8435;52.184;5.406;2022-07-06T06:40:55;20.80;90.80
16643;DHT22;8435;52.184;5.406;2022-07-06T06:43:23;20.90;90.40
16643;DHT22;8435;52.184;5.406;2022-07-06T06:45:50;21.10;90.40
16643;DHT22;8435;52.184;5.406;2022-07-06T06:48:16;21.40;90.70
16643;DHT22;8435;52.184;5.406;2022-07-06T06:50:44;21.80;90.60
16643;DHT22;8435;52.184;5.406;2022-07-06T06:53:11;22.20;90.60
16643;DHT22;8435;52.184;5.406;2022-07-06T06:55:38;22.70;90.00
16643;DHT22;8435;52.184;5.406;2022-07-06T06:58:04;23.30;88.60
16643;DHT22;8435;52.184;5.406;2022-07-06T07:00:32;23.80;88.40
16643;DHT22;8435;52.184;5.406;2022-07-06T07:02:59;24.40;85.80
16643;DHT22;8435;52.184;5.406;2022-07-06T07:05:26;24.90;85.20
16643;DHT22;8435;52.184;5.406;2022-07-06T07:07:53;25.40;83.00
16643;DHT22;8435;52.184;5.406;2022-07-06T07:10:24;25.90;80.40
16643;DHT22;8435;52.184;5.406;2022-07-06T07:12:51;26.30;78.60
16643;DHT22;8435;52.184;5.406;2022-07-06T07:15:18;26.70;77.00
16643;DHT22;8435;52.184;5.406;2022-07-06T07:17:46;27.10;74.80
16643;DHT22;8435;52.184;5.406;2022-07-06T07:20:13;27.40;72.40
16643;DHT22;8435;52.184;5.406;2022-07-06T07:22:40;27.80;71.60
16643;DHT22;8435;52.184;5.406;2022-07-06T07:25:07;28.00;70.00
16643;DHT22;8435;52.184;5.406;2022-07-06T07:27:34;28.30;68.20
16643;DHT22;8435;52.184;5.406;2022-07-06T07:30:01;28.50;67.40
16643;DHT22;8435;52.184;5.406;2022-07-06T07:32:28;28.70;66.80
16643;DHT22;8435;52.184;5.406;2022-07-06T07:34:56;28.90;65.00
16643;DHT22;8435;52.184;5.406;2022-07-06T07:37:22;29.10;63.60
16643;DHT22;8435;52.184;5.406;2022-07-06T07:39:49;29.30;63.80
16643;DHT22;8435;52.184;5.406;2022-07-06T07:42:16;29.50;62.80
16643;DHT22;8435;52.184;5.406;2022-07-06T07:44:43;29.60;62.40
16643;DHT22;8435;52.184;5.406;2022-07-06T07:47:09;29.80;62.00
16643;DHT22;8435;52.184;5.406;2022-07-06T07:49:36;29.90;60.10
16643;DHT22;8435;52.184;5.406;2022-07-06T07:52:05;29.90;60.40
16643;DHT22;8435;52.184;5.406;2022-07-06T07:54:31;29.90;59.80
16643;DHT22;8435;52.184;5.406;2022-07-06T07:56:58;29.90;60.00
16643;DHT22;8435;52.184;5.406;2022-07-06T07:59:25;29.90;60.40
16643;DHT22;8435;52.184;5.406;2022-07-06T08:01:52;30.00;60.50
16643;DHT22;8435;52.184;5.406;2022-07-06T08:04:19;30.20;59.70
16643;DHT22;8435;52.184;5.406;2022-07-06T08:06:46;30.30;58.90
16643;DHT22;8435;52.184;5.406;2022-07-06T08:09:14;30.40;58.80
16643;DHT22;8435;52.184;5.406;2022-07-06T08:11:42;30.50;56.90
16643;DHT22;8435;52.184;5.406;2022-07-06T08:14:09;30.60;56.80
16643;DHT22;8435;52.184;5.406;2022-07-06T08:16:35;30.60;57.00
16643;DHT22;8435;52.184;5.406;2022-07-06T08:19:02;30.70;57.60
16643;DHT22;8435;52.184;5.406;2022-07-06T08:21:29;30.70;56.20
16643;DHT22;8435;52.184;5.406;2022-07-06T08:23:55;30.80;56.30
16643;DHT22;8435;52.184;5.406;2022-07-06T08:26:26;30.80;56.00
16643;DHT22;8435;52.184;5.406;2022-07-06T08:28:53;30.70;56.10
16643;DHT22;8435;52.184;5.406;2022-07-06T08:31:20;30.80;55.80
16643;DHT22;8435;52.184;5.406;2022-07-06T08:33:47;30.80;56.70
16643;DHT22;8435;52.184;5.406;2022-07-06T08:36:14;30.80;56.80
16643;DHT22;8435;52.184;5.406;2022-07-06T08:38:41;30.80;56.30
16643;DHT22;8435;52.184;5.406;2022-07-06T08:41:08;30.70;55.00
16643;DHT22;8435;52.184;5.406;2022-07-06T08:43:36;30.60;54.00
16643;DHT22;8435;52.184;5.406;2022-07-06T08:46:03;30.40;53.60
16643;DHT22;8435;52.184;5.406;2022-07-06T08:48:35;30.10;53.50
16643;DHT22;8435;52.184;5.406;2022-07-06T08:51:03;29.80;53.40
16643;DHT22;8435;52.184;5.406;2022-07-06T08:53:30;29.40;53.70
16643;DHT22;8435;52.184;5.406;2022-07-06T08:55:57;29.00;53.80
16643;DHT22;8435;52.184;5.406;2022-07-06T08:58:24;28.70;54.20
16643;DHT22;8435;52.184;5.406;2022-07-06T09:00:53;28.40;53.60
16643;DHT22;8435;52.184;5.406;2022-07-06T09:03:20;28.10;54.30
16643;DHT22;8435;52.184;5.406;2022-07-06T09:05:47;27.90;54.90
16643;DHT22;8435;52.184;5.406;2022-07-06T09:08:14;27.70;55.20
16643;DHT22;8435;52.184;5.406;2022-07-06T09:10:41;27.60;56.50
16643;DHT22;8435;52.184;5.406;2022-07-06T09:13:08;27.70;56.90
16643;DHT22;8435;52.184;5.406;2022-07-06T09:15:37;27.80;55.80
16643;DHT22;8435;52.184;5.406;2022-07-06T09:18:06;27.90;55.50
16643;DHT22;8435;52.184;5.406;2022-07-06T09:20:33;27.90;55.00
16643;DHT22;8435;52.184;5.406;2022-07-06T09:23:01;28.00;55.20
16643;DHT22;8435;52.184;5.406;2022-07-06T09:25:30;28.10;55.40
16643;DHT22;8435;52.184;5.406;2022-07-06T09:27:58;28.10;55.00
16643;DHT22;8435;52.184;5.406;2022-07-06T09:30:26;28.10;54.40
16643;DHT22;8435;52.184;5.406;2022-07-06T09:32:55;28.00;54.10
16643;DHT22;8435;52.184;5.406;2022-07-06T09:35:25;27.90;54.40
16643;DHT22;8435;52.184;5.406;2022-07-06T09:38:03;27.60;54.90
16643;DHT22;8435;52.184;5.406;2022-07-06T09:40:31;27.50;55.60
16643;DHT22;8435;52.184;5.406;2022-07-06T09:43:11;27.30;56.20
16643;DHT22;8435;52.184;5.406;2022-07-06T09:45:40;27.20;56.30
16643;DHT22;8435;52.184;5.406;2022-07-06T09:48:09;27.20;56.40
16643;DHT22;8435;52.184;5.406;2022-07-06T09:50:44;27.10;56.50
16643;DHT22;8435;52.184;5.406;2022-07-06T09:53:13;27.10;55.70
16643;DHT22;8435;52.184;5.406;2022-07-06T09:55:43;27.10;55.90
16643;DHT22;8435;52.184;5.406;2022-07-06T09:58:11;27.10;55.50
16643;DHT22;8435;52.184;5.406;2022-07-06T10:00:38;27.10;55.10
16643;DHT22;8435;52.184;5.406;2022-07-06T10:03:06;27.20;55.00
16643;DHT22;8435;52.184;5.406;2022-07-06T10:05:36;27.10;55.20
16643;DHT22;8435;52.184;5.406;2022-07-06T10:08:05;27.20;54.70
16643;DHT22;8435;52.184;5.406;2022-07-06T10:10:35;27.20;55.20
16643;DHT22;8435;52.184;5.406;2022-07-06T10:13:03;27.20;55.30
16643;DHT22;8435;52.184;5.406;2022-07-06T10:15:33;27.20;55.40
16643;DHT22;8435;52.184;5.406;2022-07-06T10:18:01;27.20;55.50
16643;DHT22;8435;52.184;5.406;2022-07-06T10:20:30;27.30;55.60
16643;DHT22;8435;52.184;5.406;2022-07-06T10:22:59;27.20;55.20
16643;DHT22;8435;52.184;5.406;2022-07-06T10:25:28;27.10;55.50
16643;DHT22;8435;52.184;5.406;2022-07-06T10:27:55;27.10;55.40
16643;DHT22;8435;52.184;5.406;2022-07-06T10:30:22;27.10;55.70
16643;DHT22;8435;52.184;5.406;2022-07-06T10:32:51;27.00;55.30
16643;DHT22;8435;52.184;5.406;2022-07-06T10:35:18;27.00;55.30
16643;DHT22;8435;52.184;5.406;2022-07-06T10:37:46;27.00;55.60
16643;DHT22;8435;52.184;5.406;2022-07-06T10:40:33;27.00;56.00
16643;DHT22;8435;52.184;5.406;2022-07-06T10:43:17;27.00;55.40
16643;DHT22;8435;52.184;5.406;2022-07-06T10:45:51;27.00;55.60
16643;DHT22;8435;52.184;5.406;2022-07-06T10:48:22;27.00;55.60
16643;DHT22;8435;52.184;5.406;2022-07-06T10:50:52;27.00;56.00
16643;DHT22;8435;52.184;5.406;2022-07-06T10:53:22;27.00;55.80
16643;DHT22;8435;52.184;5.406;2022-07-06T10:55:52;27.00;55.80
16643;DHT22;8435;52.184;5.406;2022-07-06T10:58:45;27.00;55.80
16643;DHT22;8435;52.184;5.406;2022-07-06T11:01:14;27.10;55.70
16643;DHT22;8435;52.184;5.406;2022-07-06T11:03:42;27.10;55.40
16643;DHT22;8435;52.184;5.406;2022-07-06T11:06:12;27.10;55.30
16643;DHT22;8435;52.184;5.406;2022-07-06T11:08:47;27.10;55.30
16643;DHT22;8435;52.184;5.406;2022-07-06T11:11:16;27.00;55.40
16643;DHT22;8435;52.184;5.406;2022-07-06T11:13:47;27.00;55.50
16643;DHT22;8435;52.184;5.406;2022-07-06T11:16:15;27.00;55.30
16643;DHT22;8435;52.184;5.406;2022-07-06T11:18:46;27.00;55.50
16643;DHT22;8435;52.184;5.406;2022-07-06T11:21:18;27.10;54.90
16643;DHT22;8435;52.184;5.406;2022-07-06T11:23:46;27.00;55.00
16643;DHT22;8435;52.184;5.406;2022-07-06T11:26:15;27.00;55.20
16643;DHT22;8435;52.184;5.406;2022-07-06T11:28:45;27.00;55.60
16643;DHT22;8435;52.184;5.406;2022-07-06T11:31:13;26.90;55.30
16643;DHT22;8435;52.184;5.406;2022-07-06T11:33:40;27.00;55.50
16643;DHT22;8435;52.184;5.406;2022-07-06T11:36:14;27.00;55.10
16643;DHT22;8435;52.184;5.406;2022-07-06T11:38:41;27.00;55.20
16643;DHT22;8435;52.184;5.406;2022-07-06T11:41:08;26.90;55.00
16643;DHT22;8435;52.184;5.406;2022-07-06T11:43:38;26.90;54.50
16643;DHT22;8435;52.184;5.406;2022-07-06T11:46:20;26.80;55.00
16643;DHT22;8435;52.184;5.406;2022-07-06T11:48:48;26.80;55.10
16643;DHT22;8435;52.184;5.406;2022-07-06T11:51:15;26.70;54.80
16643;DHT22;8435;52.184;5.406;2022-07-06T11:53:44;26.70;54.90
16643;DHT22;8435;52.184;5.406;2022-07-06T11:56:11;26.70;54.90
16643;DHT22;8435;52.184;5.406;2022-07-06T11:58:40;26.70;55.40
16643;DHT22;8435;52.184;5.406;2022-07-06T12:01:09;26.70;55.10
16643;DHT22;8435;52.184;5.406;2022-07-06T12:03:36;26.80;55.10
16643;DHT22;8435;52.184;5.406;2022-07-06T12:06:04;26.70;54.60
16643;DHT22;8435;52.184;5.406;2022-07-06T12:08:31;26.70;54.70
16643;DHT22;8435;52.184;5.406;2022-07-06T12:10:59;26.70;55.00
16643;DHT22;8435;52.184;5.406;2022-07-06T12:13:26;26.70;55.10
16643;DHT22;8435;52.184;5.406;2022-07-06T12:15:54;26.80;54.70
16643;DHT22;8435;52.184;5.406;2022-07-06T12:18:35;26.80;54.20
16643;DHT22;8435;52.184;5.406;2022-07-06T12:21:02;26.80;54.50
16643;DHT22;8435;52.184;5.406;2022-07-06T12:23:38;26.80;54.70
16643;DHT22;8435;52.184;5.406;2022-07-06T12:26:06;26.90;54.40
16643;DHT22;8435;52.184;5.406;2022-07-06T12:28:32;26.90;54.60
16643;DHT22;8435;52.184;5.406;2022-07-06T12:31:00;27.00;54.30
16643;DHT22;8435;52.184;5.406;2022-07-06T12:33:27;27.00;54.20
16643;DHT22;8435;52.184;5.406;2022-07-06T12:35:54;27.10;54.50
16643;DHT22;8435;52.184;5.406;2022-07-06T12:38:22;27.20;54.90
16643;DHT22;8435;52.184;5.406;2022-07-06T12:40:49;27.20;54.00
16643;DHT22;8435;52.184;5.406;2022-07-06T12:43:36;27.30;53.90
16643;DHT22;8435;52.184;5.406;2022-07-06T12:46:23;27.30;53.70
16643;DHT22;8435;52.184;5.406;2022-07-06T12:48:52;27.40;53.60
16643;DHT22;8435;52.184;5.406;2022-07-06T12:51:19;27.40;53.30
16643;DHT22;8435;52.184;5.406;2022-07-06T12:53:46;27.40;53.40
16643;DHT22;8435;52.184;5.406;2022-07-06T12:56:14;27.40;53.80
16643;DHT22;8435;52.184;5.406;2022-07-06T12:58:57;27.40;53.40
16643;DHT22;8435;52.184;5.406;2022-07-06T13:01:25;27.40;53.20
16643;DHT22;8435;52.184;5.406;2022-07-06T13:03:55;27.40;53.60
16643;DHT22;8435;52.184;5.406;2022-07-06T13:06:33;27.30;53.50
16643;DHT22;8435;52.184;5.406;2022-07-06T13:09:00;27.50;53.40
16643;DHT22;8435;52.184;5.406;2022-07-06T13:11:26;27.40;53.40
16643;DHT22;8435;52.184;5.406;2022-07-06T13:13:53;27.40;53.20
16643;DHT22;8435;52.184;5.406;2022-07-06T13:16:20;27.50;53.20
16643;DHT22;8435;52.184;5.406;2022-07-06T13:18:51;27.40;53.40
16643;DHT22;8435;52.184;5.406;2022-07-06T13:21:17;27.50;53.30
16643;DHT22;8435;52.184;5.406;2022-07-06T13:23:44;27.50;53.30
16643;DHT22;8435;52.184;5.406;2022-07-06T13:26:11;27.60;53.00
16643;DHT22;8435;52.184;5.406;2022-07-06T13:28:38;27.60;52.80
16643;DHT22;8435;52.184;5.406;2022-07-06T13:31:04;27.60;52.80
16643;DHT22;8435;52.184;5.406;2022-07-06T13:33:31;27.50;52.50
16643;DHT22;8435;52.184;5.406;2022-07-06T13:36:00;27.50;53.00
16643;DHT22;8435;52.184;5.406;2022-07-06T13:38:27;27.40;52.90
16643;DHT22;8435;52.184;5.406;2022-07-06T13:40:54;27.50;52.40
16643;DHT22;8435;52.184;5.406;2022-07-06T13:43:21;27.40;52.60
16643;DHT22;8435;52.184;5.406;2022-07-06T13:45:48;27.40;52.80
16643;DHT22;8435;52.184;5.406;2022-07-06T13:48:14;27.40;53.00
16643;DHT22;8435;52.184;5.406;2022-07-06T13:50:41;27.50;52.70
16643;DHT22;8435;52.184;5.406;2022-07-06T13:53:09;27.40;52.90
16643;DHT22;8435;52.184;5.406;2022-07-06T13:55:36;27.40;53.00
16643;DHT22;8435;52.184;5.406;2022-07-06T13:58:02;27.40;53.30
16643;DHT22;8435;52.184;5.406;2022-07-06T14:00:29;27.40;53.10
16643;DHT22;8435;52.184;5.406;2022-07-06T14:02:56;27.50;53.40
16643;DHT22;8435;52.184;5.406;2022-07-06T14:05:23;27.50;53.50
16643;DHT22;8435;52.184;5.406;2022-07-06T14:07:49;27.50;53.40
16643;DHT22;8435;52.184;5.406;2022-07-06T14:10:18;27.50;52.90
16643;DHT22;8435;52.184;5.406;2022-07-06T14:12:44;27.60;52.80
16643;DHT22;8435;52.184;5.406;2022-07-06T14:15:11;27.60;53.10
16643;DHT22;8435;52.184;5.406;2022-07-06T14:17:38;27.50;53.20
16643;DHT22;8435;52.184;5.406;2022-07-06T14:20:05;27.50;53.00
16643;DHT22;8435;52.184;5.406;2022-07-06T14:22:32;27.50;53.20
16643;DHT22;8435;52.184;5.406;2022-07-06T14:24:59;27.40;53.10
16643;DHT22;8435;52.184;5.406;2022-07-06T14:27:27;27.40;53.90
16643;DHT22;8435;52.184;5.406;2022-07-06T14:29:54;27.30;53.30
16643;DHT22;8435;52.184;5.406;2022-07-06T14:32:20;27.20;53.20
16643;DHT22;8435;52.184;5.406;2022-07-06T14:34:47;27.10;53.80
16643;DHT22;8435;52.184;5.406;2022-07-06T14:37:14;26.90;53.90
16643;DHT22;8435;52.184;5.406;2022-07-06T14:39:40;26.90;54.00
16643;DHT22;8435;52.184;5.406;2022-07-06T14:42:08;26.80;54.00
16643;DHT22;8435;52.184;5.406;2022-07-06T14:44:36;26.70;54.10
16643;DHT22;8435;52.184;5.406;2022-07-06T14:47:03;26.70;54.40
16643;DHT22;8435;52.184;5.406;2022-07-06T14:49:30;26.60;54.50
16643;DHT22;8435;52.184;5.406;2022-07-06T14:51:57;26.50;54.30
16643;DHT22;8435;52.184;5.406;2022-07-06T14:54:24;26.50;54.40
16643;DHT22;8435;52.184;5.406;2022-07-06T14:56:50;26.40;54.70
16643;DHT22;8435;52.184;5.406;2022-07-06T14:59:17;26.30;54.70
16643;DHT22;8435;52.184;5.406;2022-07-06T15:01:46;26.20;54.80
16643;DHT22;8435;52.184;5.406;2022-07-06T15:04:13;26.20;55.10
16643;DHT22;8435;52.184;5.406;2022-07-06T15:06:40;26.10;55.20
16643;DHT22;8435;52.184;5.406;2022-07-06T15:09:06;26.10;55.50
16643;DHT22;8435;52.184;5.406;2022-07-06T15:11:33;26.00;55.70
16643;DHT22;8435;52.184;5.406;2022-07-06T15:14:00;26.00;56.00
16643;DHT22;8435;52.184;5.406;2022-07-06T15:16:27;25.90;56.20
16643;DHT22;8435;52.184;5.406;2022-07-06T15:18:55;25.90;56.40
16643;DHT22;8435;52.184;5.406;2022-07-06T15:21:21;25.90;56.90
16643;DHT22;8435;52.184;5.406;2022-07-06T15:23:48;25.80;56.80
16643;DHT22;8435;52.184;5.406;2022-07-06T15:26:15;25.80;56.90
16643;DHT22;8435;52.184;5.406;2022-07-06T15:28:42;25.80;57.00
16643;DHT22;8435;52.184;5.406;2022-07-06T15:31:08;25.80;57.30
16643;DHT22;8435;52.184;5.406;2022-07-06T15:33:35;25.80;57.60
16643;DHT22;8435;52.184;5.406;2022-07-06T15:36:05;25.80;57.90
16643;DHT22;8435;52.184;5.406;2022-07-06T15:38:31;25.80;58.40
16643;DHT22;8435;52.184;5.406;2022-07-06T15:41:00;25.70;58.90
16643;DHT22;8435;52.184;5.406;2022-07-06T15:43:28;25.70;59.30
16643;DHT22;8435;52.184;5.406;2022-07-06T15:45:57;25.70;60.00
16643;DHT22;8435;52.184;5.406;2022-07-06T15:48:26;25.70;60.70